• Join FlightAware (Why Join?)
  • Login
  • US Flag 
09:34PM EST


 

Airport Tracker/Info


-or-


 

Live Flight TrackerFlight Track Log ✈ AWI4029 ✈ 15-Oct-2013 ✈ KDCA - KGSP

Flight Track Log - Related Links

Times and Time Zones

All times are in EDT time to prevent confusion due to time zone crossing. See the AWI4029 flight status page for this flight to view local times or setup timezone preferences in your user account.

Time Position Orientation Groundspeed Altitude Reporting Facility
EDT Latitude Longitude Course Direction KTS MPH feet Rate Location/Type
08:19PM 38.8833 -77.0500 226° Southwest 174 200 1,300  Level Potomac TRACON
08:20PM 38.9167 -77.1000 311° West 233 268 3,300 2,220 Climbing Potomac TRACON
08:21PM 38.9833 -77.1667 322° Northwest 280 322 5,800 2,520 Climbing Potomac TRACON
08:22PM 38.9833 -77.2500 270° West 277 319 8,200 2,400 Climbing Potomac TRACON
08:23PM 38.9167 -77.3167 218° Southwest 291 335 10,700 1,620 Climbing Potomac TRACON
08:25PM 38.5143 -77.5142 226° Southwest  Level Estimated
08:25PM 38.7686 -77.3942 202° Southwest 339 390 13,200  Level Washington Center
08:26PM 38.6947 -77.4564 213° Southwest 347 399 14,600 840 Climbing Washington Center
08:27PM 38.6183 -77.5367 219° Southwest 368 423 15,000 840 Climbing Washington Center
08:28PM 38.5356 -77.6222 219° Southwest 388 447 16,300 1,200 Climbing Washington Center
08:29PM 38.4550 -77.7075 220° Southwest 388 447 17,400 900 Climbing Washington Center
08:30PM 38.3636 -77.8003 219° Southwest 388 447 18,200 780 Climbing Washington Center
08:31PM 38.2806 -77.8850 219° Southwest 388 447 19,000 360 Climbing Washington Center
08:32PM 38.1914 -77.9747 218° Southwest 388 447 19,000  Level Washington Center
08:33PM 38.1019 -78.0669 219° Southwest 409 471 19,000  Level Washington Center
08:34PM 38.0081 -78.1614 218° Southwest 419 482 19,000  Level Washington Center
08:35PM 37.9411 -78.2644 231° Southwest 419 482 19,000 720 Level Washington Center
08:36PM 37.8678 -78.3722 229° Southwest 419 482 20,500 1,260 Climbing Washington Center
08:37PM 37.7858 -78.4847 227° Southwest 409 471 21,600 960 Climbing Washington Center
08:38PM 37.7125 -78.5922 229° Southwest 404 465 22,400 720 Climbing Washington Center
08:39PM 37.6389 -78.6969 228° Southwest 404 465 23,100 660 Climbing Washington Center
08:40PM 37.5631 -78.8039 228° Southwest 404 465 23,800 600 Climbing Washington Center
08:41PM 37.4958 -78.8978 228° Southwest 404 465 24,400 600 Climbing Washington Center
08:42PM 37.4219 -79.0019 228° Southwest 404 465 25,100 660 Climbing Washington Center
08:43PM 37.3458 -79.1083 228° Southwest 404 465 25,800 420 Climbing Washington Center
08:44PM 37.2697 -79.2117 227° Southwest 404 465 26,000 60 Climbing Washington Center
08:45PM 37.1933 -79.3228 229° Southwest 410 472 26,000  Level Washington Center
08:46PM 37.1100 -79.4492 230° Southwest 421 484 26,000  Level Washington Center
08:47PM 37.0333 -79.5622 230° Southwest 427 491 26,000  Level Washington Center
08:48PM 36.9586 -79.6753 230° Southwest 427 491 26,000  Level Washington Center
08:49PM 36.8817 -79.7881 230° Southwest 432 497 26,000  Level Washington Center
08:51PM 36.7164 -80.0275 229° Southwest 432 497 26,000  Level Atlanta Center
08:52PM 36.6386 -80.1375 229° Southwest 432 497 26,000  Level Atlanta Center
08:53PM 36.5628 -80.2497 230° Southwest 432 497 26,000 -480 Level Atlanta Center
08:54PM 36.4603 -80.3036 203° Southwest 426 490 25,100 -960 Descending Atlanta Center
08:55PM 36.3428 -80.3478 197° South 426 490 24,100 -1,080 Descending Atlanta Center
08:56PM 36.2314 -80.3889 197° South 431 496 23,000 -1,140 Descending Atlanta Center
08:57PM 36.1203 -80.4375 199° South 426 490 21,900 -1,200 Descending Atlanta Center
08:58PM 36.0250 -80.5394 221° Southwest 411 473 20,600 -960 Descending Atlanta Center
08:59PM 35.9397 -80.6225 218° Southwest 411 473 20,000 -900 Descending Atlanta Center
09:00PM 35.8606 -80.7028 219° Southwest 398 458 18,900 -1,500 Descending Atlanta Center
09:01PM 35.7856 -80.7775 219° Southwest 369 425 17,100 -1,020 Descending Atlanta Center
09:02PM 35.7306 -80.8333 219° Southwest 315 362 17,100 -120 Level Atlanta Center
09:02PM 35.7225 -80.8389 209° Southwest 340 391 17,000 -600 Descending Atlanta Center
09:03PM 35.6533 -80.9053 218° Southwest 329 379 16,400 -960 Descending Atlanta Center
09:04PM 35.6044 -80.9558 220° Southwest 371 427 15,600 -1,320 Descending Atlanta Center
09:04PM 35.5739 -80.9850 218° Southwest 357 411 15,100 -1,380 Descending Atlanta Center
09:05PM 35.5150 -81.0458 220° Southwest 364 419 14,100 -1,440 Descending Atlanta Center
09:05PM 35.4883 -81.0700 216° Southwest 362 417 13,700 -1,020 Descending Atlanta Center
09:06PM 35.4564 -81.1297 237° Southwest 324 373 13,100 -720 Descending Atlanta Center
09:06PM 35.4364 -81.1633 234° Southwest 343 395 13,000  Descending Atlanta Center
09:07PM 35.4122 -81.2075 236° Southwest 316 364 13,100  Climbing Atlanta Center
09:07PM 35.3883 -81.2544 238° Southwest 332 382 13,000  Descending Atlanta Center
09:08PM 35.3664 -81.3008 240° Southwest 319 367 13,100  Climbing Atlanta Center
09:08PM 35.3425 -81.3450 236° Southwest 332 382 13,000 -1,020 Descending Atlanta Center
09:09PM 35.2944 -81.4408 238° Southwest 327 376 11,600 -1,500 Descending Atlanta Center
09:10PM 35.2442 -81.5339 237° Southwest 327 376 10,000 -840 Descending Atlanta Center
09:11PM 35.2019 -81.6164 238° Southwest 327 376 10,000  Level Atlanta Center
09:13PM 35.1333 -81.7167 239° Southwest  Level FlightAware Approximate
09:20PM 34.8833 -82.2167 231° Southwest  Level FlightAware Approximate
09:21PM 34.8957 -82.2189 231° Southwest  Level Estimated
09:22PM 34.8957 -82.2189 231° Southwest  Level Estimated
09:23PM 34.8957 -82.2189 231° Southwest  Level Estimated
09:24PM 34.8957 -82.2189 231° Southwest  Level Estimated